world map with QFR marked

QFR - Airport

This information may not be accurate or current and is not valid for navigation or flight planning. No warranty of fitness for any purpose is made or implied.

flag of Lazioflag of Italy

Donate via PayPal

Additional information is available on the NEW Great Circle Mapper

Location
City:  Frosinone, Lazio, Italy
Name:Frosinone Girolamo Moscardini Airport
ICAO / IATA:LIRH / QFR

Details
Type:Airport (Aerodrome, Airfield)
Use:Military
Latitude:41°39'N (41.648)
Longitude:13°18'E (13.295)
Elevation:632 ft (193 m)
Runways:unknown number
Longest:4757 ft (1450 m)

Time
Timezone:UTC+1 (DST+4)
Local Time:

Weather
METAR:LIRH  041355Z 01012KT 9999 FEW030 14/02 Q1015 RMK BKN SCT070 MON LIB NC VIS MIN 9999 WIND THR16 /////KT BLU
TAF:LIRH  (expired)

Related Locations
Nearby:
Farthest:CHT: 11922 mi / 19187 km
Waitangi [Tuuta], CIT, NZ

Find:

   beyond  
but within

Other Information
Maps:
Sources:

  


 


Great Circle Mapper   Great Circle Mapper
Great Circle Mapper FAQ   Great Circle Mapper FAQ
  Karl's Home Page
KLSē   KLSē Home
   GC on Facebook
Airlines of the World   Airlines of the World
Donate via PayPal


Copyright © 2004-2019, Karl L. Swartz. All rights reserved.
All trademarks mentioned herein belong to their respective owners.

Please see credits for attribution and copyright information.

Karl Swartz <karl@kls2.com>
  Powered by FreeBSD
Valid HTML 4.01!
Labeled with ICRA
hCard Microformat
Geo Microformat